Kine — C6WT4 — position and weather

sailwx.info

Track history (hours):
 
Tides and Currents Weather Stations Pressure Air Temp Water Temp Dewpoint Dewpoint Depression Visibility Wind Speed Wind Dir Waves Ship Positions

Kine

Last reported at 2016-Jul-29 20:14 UTC. Time now 2016-Jul-30 16:56 UTC.
Position N 54°14' E 005°07'.

Length 89 m; draft 5.1 m.

Type: Cargo ship. MMSI: 311117000.

Date/timePositionNaut miles runAvg speedWind from/ knotsBaromVisibWave heightAir tempDewpointWater temp
2016-Jul-29 20:14N 54°14' E 005°07'7 9.5
2016-Jul-29 19:30N 54°07' E 005°06'9 9.3
2016-Jul-29 18:33N 53°59' E 005°03'9 9.4
2016-Jul-29 17:33N 53°50' E 004°58'6710.5
2016-Jul-29 11:09N 52°49' E 004°11'710.9
2016-Jul-29 10:33N 52°44' E 004°04'75 9.2
2016-Jul-29 02:21N 51°39' E 003°02'7 8.6
2016-Jul-29 01:33N 51°35' E 002°54'9 8.8
2016-Jul-29 00:33N 51°27' E 002°46'5 5.5
2016-Jul-28 23:33N 51°22' E 002°50'9 8.7
2016-Jul-28 22:33N 51°22' E 003°03'6 6.3
2016-Jul-28 21:33N 51°20' E 003°13'0 0.0
2016-Jul-28 20:33N 51°20' E 003°13'4 4.1
2016-Jul-28 19:33N 51°16' E 003°13'2 2.0
2016-Jul-28 18:33N 51°14' E 003°13'0 0.0
2016-Jul-28 17:33N 51°14' E 003°13'0 0.0
2016-Jul-28 16:24N 51°14' E 003°13'0 0.0
2016-Jul-28 15:21N 51°14' E 003°13'0 0.0
2016-Jul-28 13:18N 51°14' E 003°13'0 0.0
2016-Jul-28 12:27N 51°14' E 003°13'0 0.0
2016-Jul-28 11:18N 51°14' E 003°13'0 0.0
2016-Jul-28 10:24N 51°14' E 003°13'0 0.0
2016-Jul-28 09:33N 51°14' E 003°13'0 0.0
2016-Jul-28 08:33N 51°14' E 003°13'4 3.6
2016-Jul-28 07:31N 51°18' E 003°12'2 2.3
2016-Jul-28 06:24N 51°20' E 003°13'6 7.0
2016-Jul-28 05:33N 51°22' E 003°04'1110.7
2016-Jul-28 04:33N 51°22' E 002°47'5 4.7
2016-Jul-28 03:33N 51°25' E 002°41'6 5.6
2016-Jul-28 02:29N 51°29' E 002°48'8 8.7
2016-Jul-28 01:33N 51°36' E 002°55'9 8.3
2016-Jul-28 00:27N 51°42' E 003°05'62 6.1
2016-Jul-27 14:11N 52°31' E 004°08'5 7.6
2016-Jul-27 13:34N 52°30' E 004°15'8 7.6
2016-Jul-27 12:34N 52°29' E 004°28'5 5.2
2016-Jul-27 11:34N 52°28' E 004°36'8 8.0
2016-Jul-27 10:33N 52°25' E 004°49'2 2.4
2016-Jul-27 09:31N 52°24' E 004°52'0 0.0
2016-Jul-27 08:28N 52°24' E 004°52'0 0.0
2016-Jul-27 07:31N 52°24' E 004°52'0 0.0
2016-Jul-27 06:28N 52°24' E 004°52'0 0.0
2016-Jul-27 05:34N 52°24' E 004°52'0 0.3
2016-Jul-27 04:31N 52°24' E 004°52'0 0.0
2016-Jul-27 03:31N 52°24' E 004°52'0 0.0
2016-Jul-27 02:31N 52°24' E 004°52'0 0.0
2016-Jul-27 01:31N 52°24' E 004°52'0 0.0
2016-Jul-27 00:31N 52°24' E 004°52'0 0.0
2016-Jul-26 23:31N 52°24' E 004°52'0 0.0
2016-Jul-26 22:28N 52°24' E 004°52'0 0.0
2016-Jul-26 21:31N 52°24' E 004°52'0 0.0
2016-Jul-26 20:31N 52°24' E 004°52'0 0.0
2016-Jul-26 19:31N 52°24' E 004°52'0 0.0
2016-Jul-26 18:28N 52°24' E 004°52'0 0.0
2016-Jul-26 17:31N 52°24' E 004°52'0 0.0
2016-Jul-26 16:31N 52°24' E 004°52'0 0.0
2016-Jul-26 15:31N 52°24' E 004°52'0 0.0
2016-Jul-26 14:31N 52°24' E 004°52'2 2.1
2016-Jul-26 13:33N 52°24' E 004°49'1 0.5
2016-Jul-26 12:22N 52°24' E 004°50'0 0.0
2016-Jul-26 11:31N 52°24' E 004°50'0 0.0
2016-Jul-26 10:31N 52°24' E 004°50'0 0.0
2016-Jul-26 09:25N 52°24' E 004°50'0 0.0
2016-Jul-26 08:31N 52°24' E 004°50'0 0.0
2016-Jul-26 07:28N 52°24' E 004°50'0 0.0
2016-Jul-26 06:28N 52°24' E 004°50'0 0.0
2016-Jul-26 05:25N 52°24' E 004°50'0 0.0
2016-Jul-26 04:31N 52°24' E 004°50'0 0.0
2016-Jul-26 03:31N 52°24' E 004°50'0 0.0
2016-Jul-26 02:33N 52°24' E 004°50'5 5.2
2016-Jul-26 01:33N 52°26' E 004°42'5 4.7
2016-Jul-26 00:33N 52°28' E 004°35'8 7.7
2016-Jul-25 23:33N 52°30' E 004°23'2 2.1
2016-Jul-25 22:32N 52°32' E 004°20'0 0.0
2016-Jul-25 21:32N 52°32' E 004°20'0 0.0
2016-Jul-25 20:29N 52°32' E 004°20'0 0.0
2016-Jul-25 19:32N 52°32' E 004°20'0 0.0
2016-Jul-25 18:32N 52°32' E 004°20'4 4.2
2016-Jul-25 17:33N 52°35' E 004°18'9 9.4
2016-Jul-25 16:33N 52°42' E 004°08'414 9.8
2016-Jul-23 22:32N 58°26' W 002°40'1111.1
2016-Jul-23 21:33N 58°35' W 002°53'1312.6
2016-Jul-23 20:34N 58°43' W 003°10'9 8.8
2016-Jul-23 19:33N 58°47' W 003°26'9 9.2
2016-Jul-23 18:34N 58°52' W 003°40'9 9.2
2016-Jul-23 17:33N 58°57' W 003°55'9 9.0
2016-Jul-23 16:33N 59°03' W 004°09'9 9.0
2016-Jul-23 15:33N 59°08' W 004°23'  
Track history (hours):
 
Tides and Currents Weather Stations Pressure Air Temp Water Temp Dewpoint Dewpoint Depression Visibility Wind Speed Wind Dir Waves Ship Positions

Kine

Last reported at 2016-Jul-29 20:14 UTC. Time now 2016-Jul-30 16:56 UTC.
Position N 54°14' E 005°07'.

Length 89 m; draft 5.1 m.

Type: Cargo ship. MMSI: 311117000.

Date/timePositionNaut miles runAvg speedWind from/ knotsBaromVisibWave heightAir tempDewpointWater temp
2016-Jul-29 20:14N 54°14' E 005°07'7 9.5
2016-Jul-29 19:30N 54°07' E 005°06'9 9.3
2016-Jul-29 18:33N 53°59' E 005°03'9 9.4
2016-Jul-29 17:33N 53°50' E 004°58'6710.5
2016-Jul-29 11:09N 52°49' E 004°11'710.9
2016-Jul-29 10:33N 52°44' E 004°04'75 9.2
2016-Jul-29 02:21N 51°39' E 003°02'7 8.6
2016-Jul-29 01:33N 51°35' E 002°54'9 8.8
2016-Jul-29 00:33N 51°27' E 002°46'5 5.5
2016-Jul-28 23:33N 51°22' E 002°50'9 8.7
2016-Jul-28 22:33N 51°22' E 003°03'6 6.3
2016-Jul-28 21:33N 51°20' E 003°13'0 0.0
2016-Jul-28 20:33N 51°20' E 003°13'4 4.1
2016-Jul-28 19:33N 51°16' E 003°13'2 2.0
2016-Jul-28 18:33N 51°14' E 003°13'0 0.0
2016-Jul-28 17:33N 51°14' E 003°13'0 0.0
2016-Jul-28 16:24N 51°14' E 003°13'0 0.0
2016-Jul-28 15:21N 51°14' E 003°13'0 0.0
2016-Jul-28 13:18N 51°14' E 003°13'0 0.0
2016-Jul-28 12:27N 51°14' E 003°13'0 0.0
2016-Jul-28 11:18N 51°14' E 003°13'0 0.0
2016-Jul-28 10:24N 51°14' E 003°13'0 0.0
2016-Jul-28 09:33N 51°14' E 003°13'0 0.0
2016-Jul-28 08:33N 51°14' E 003°13'4 3.6
2016-Jul-28 07:31N 51°18' E 003°12'2 2.3
2016-Jul-28 06:24N 51°20' E 003°13'6 7.0
2016-Jul-28 05:33N 51°22' E 003°04'1110.7
2016-Jul-28 04:33N 51°22' E 002°47'5 4.7
2016-Jul-28 03:33N 51°25' E 002°41'6 5.6
2016-Jul-28 02:29N 51°29' E 002°48'8 8.7
2016-Jul-28 01:33N 51°36' E 002°55'9 8.3
2016-Jul-28 00:27N 51°42' E 003°05'62 6.1
2016-Jul-27 14:11N 52°31' E 004°08'5 7.6
2016-Jul-27 13:34N 52°30' E 004°15'8 7.6
2016-Jul-27 12:34N 52°29' E 004°28'5 5.2
2016-Jul-27 11:34N 52°28' E 004°36'8 8.0
2016-Jul-27 10:33N 52°25' E 004°49'2 2.4
2016-Jul-27 09:31N 52°24' E 004°52'0 0.0
2016-Jul-27 08:28N 52°24' E 004°52'0 0.0
2016-Jul-27 07:31N 52°24' E 004°52'0 0.0
2016-Jul-27 06:28N 52°24' E 004°52'0 0.0
2016-Jul-27 05:34N 52°24' E 004°52'0 0.3
2016-Jul-27 04:31N 52°24' E 004°52'0 0.0
2016-Jul-27 03:31N 52°24' E 004°52'0 0.0
2016-Jul-27 02:31N 52°24' E 004°52'0 0.0
2016-Jul-27 01:31N 52°24' E 004°52'0 0.0
2016-Jul-27 00:31N 52°24' E 004°52'0 0.0
2016-Jul-26 23:31N 52°24' E 004°52'0 0.0
2016-Jul-26 22:28N 52°24' E 004°52'0 0.0
2016-Jul-26 21:31N 52°24' E 004°52'0 0.0
2016-Jul-26 20:31N 52°24' E 004°52'0 0.0
2016-Jul-26 19:31N 52°24' E 004°52'0 0.0
2016-Jul-26 18:28N 52°24' E 004°52'0 0.0
2016-Jul-26 17:31N 52°24' E 004°52'0 0.0
2016-Jul-26 16:31N 52°24' E 004°52'0 0.0
2016-Jul-26 15:31N 52°24' E 004°52'0 0.0
2016-Jul-26 14:31N 52°24' E 004°52'2 2.1
2016-Jul-26 13:33N 52°24' E 004°49'1 0.5
2016-Jul-26 12:22N 52°24' E 004°50'0 0.0
2016-Jul-26 11:31N 52°24' E 004°50'0 0.0
2016-Jul-26 10:31N 52°24' E 004°50'0 0.0
2016-Jul-26 09:25N 52°24' E 004°50'0 0.0
2016-Jul-26 08:31N 52°24' E 004°50'0 0.0
2016-Jul-26 07:28N 52°24' E 004°50'0 0.0
2016-Jul-26 06:28N 52°24' E 004°50'0 0.0
2016-Jul-26 05:25N 52°24' E 004°50'0 0.0
2016-Jul-26 04:31N 52°24' E 004°50'0 0.0
2016-Jul-26 03:31N 52°24' E 004°50'0 0.0
2016-Jul-26 02:33N 52°24' E 004°50'5 5.2
2016-Jul-26 01:33N 52°26' E 004°42'5 4.7
2016-Jul-26 00:33N 52°28' E 004°35'8 7.7
2016-Jul-25 23:33N 52°30' E 004°23'2 2.1
2016-Jul-25 22:32N 52°32' E 004°20'0 0.0
2016-Jul-25 21:32N 52°32' E 004°20'0 0.0
2016-Jul-25 20:29N 52°32' E 004°20'0 0.0
2016-Jul-25 19:32N 52°32' E 004°20'0 0.0
2016-Jul-25 18:32N 52°32' E 004°20'4 4.2
2016-Jul-25 17:33N 52°35' E 004°18'9 9.4
2016-Jul-25 16:33N 52°42' E 004°08'414 9.8
2016-Jul-23 22:32N 58°26' W 002°40'1111.1
2016-Jul-23 21:33N 58°35' W 002°53'1312.6
2016-Jul-23 20:34N 58°43' W 003°10'9 8.8
2016-Jul-23 19:33N 58°47' W 003°26'9 9.2
2016-Jul-23 18:34N 58°52' W 003°40'9 9.2
2016-Jul-23 17:33N 58°57' W 003°55'9 9.0
2016-Jul-23 16:33N 59°03' W 004°09'9 9.0
2016-Jul-23 15:33N 59°08' W 004°23'  

Dump ship's entire track history